Terminal Aerodrome Forecast
Issued by NWS Tulsa, OK

Home | Current Version | Previous Version | Text Only | Print | Product List | Glossary On
Versions: 1 2 3 4 5 6 7 8 9 10 11 12 13 14 15 16 17 18 19
000
FTUS44 KTSA 292334
TAFTUL
TAF
KTUL 292334Z 3000/3024 03010KT P6SM VCTS BKN007 OVC025CB
      TEMPO 3000/3004 2SM TSRA BR OVC005CB
     FM300900 18011KT 4SM -RA BR BKN007
     FM301600 21012G22KT P6SM OVC015
     FM301800 23015G25KT P6SM BKN025=

USA.gov is the U.S. government's official web portal to all federal, state and local government web resources and services.